createdAt,value
2023-05-20T00:01:34.856Z,17.77
2023-05-20T00:04:01.631Z,17.35
2023-05-20T00:06:28.323Z,15.85
2023-05-20T00:08:55.905Z,15.48
2023-05-20T00:11:22.672Z,17.98
2023-05-20T00:13:49.185Z,16.85
2023-05-20T00:16:15.731Z,17.15
2023-05-20T00:18:42.355Z,17.88
2023-05-20T00:21:09.210Z,19.30
2023-05-20T00:23:35.875Z,19.33
2023-05-20T00:26:02.468Z,18.33
2023-05-20T00:28:29.091Z,17.30
2023-05-20T00:30:55.754Z,18.70
2023-05-20T00:33:22.298Z,19.00
2023-05-20T00:35:48.871Z,20.27
2023-05-20T00:38:15.586Z,19.55
2023-05-20T00:40:42.111Z,18.73
2023-05-20T00:43:08.618Z,18.75
2023-05-20T00:45:35.513Z,17.52
2023-05-20T00:48:04.410Z,19.00
2023-05-20T00:50:31.602Z,20.10
2023-05-20T00:52:58.987Z,17.55
2023-05-20T00:55:26.066Z,19.75
2023-05-20T00:57:53.269Z,18.55
2023-05-20T01:00:19.920Z,18.75
2023-05-20T01:02:46.641Z,19.50
2023-05-20T01:05:13.388Z,20.50
2023-05-20T01:07:40.115Z,22.20
2023-05-20T01:10:07.410Z,21.05
2023-05-20T01:12:44.987Z,21.02
2023-05-20T01:15:13.049Z,22.38
2023-05-20T01:17:45.199Z,21.02
2023-05-20T01:20:12.730Z,22.67
2023-05-20T01:22:40.042Z,21.88
2023-05-20T01:25:06.847Z,22.33
2023-05-20T01:27:33.531Z,22.17
2023-05-20T01:30:00.254Z,19.55
2023-05-20T01:32:28.921Z,20.55
2023-05-20T01:34:56.460Z,21.75
2023-05-20T01:37:23.359Z,18.98
2023-05-20T01:39:50.551Z,19.65
2023-05-20T01:42:17.645Z,19.63
2023-05-20T01:44:44.208Z,19.38
2023-05-20T01:47:10.931Z,19.85
2023-05-20T01:49:37.546Z,22.58
2023-05-20T01:52:04.472Z,22.10
2023-05-20T01:54:31.060Z,22.88
2023-05-20T01:56:57.597Z,23.02
2023-05-20T01:59:24.162Z,24.70
2023-05-20T02:01:50.932Z,23.05
2023-05-20T02:04:19.289Z,24.85
2023-05-20T02:06:46.318Z,22.00
2023-05-20T02:09:12.959Z,24.33
2023-05-20T02:11:39.486Z,22.80
2023-05-20T02:14:06.091Z,25.42
2023-05-20T02:16:32.687Z,22.92
2023-05-20T02:18:59.300Z,23.70
2023-05-20T02:21:26.455Z,24.08
2023-05-20T02:23:53.044Z,23.35
2023-05-20T02:26:20.783Z,21.30
2023-05-20T02:28:50.872Z,23.77
2023-05-20T02:31:18.006Z,24.77
2023-05-20T02:33:45.360Z,23.95
2023-05-20T02:36:11.954Z,23.30
2023-05-20T02:38:38.478Z,23.55
2023-05-20T02:41:05.114Z,23.27
2023-05-20T02:43:32.703Z,21.83
2023-05-20T02:45:59.297Z,22.83
2023-05-20T02:48:25.950Z,20.35
2023-05-20T02:50:53.321Z,19.50
2023-05-20T02:53:19.904Z,18.50
2023-05-20T02:55:47.739Z,18.08
2023-05-20T02:58:14.282Z,17.83
2023-05-20T03:00:41.260Z,17.80
2023-05-20T03:03:08.570Z,15.20
2023-05-20T03:05:38.156Z,17.52
2023-05-20T03:08:09.733Z,15.63
2023-05-20T03:13:03.436Z,16.45
2023-05-20T03:15:29.995Z,15.70
2023-05-20T03:17:56.710Z,17.50
2023-05-20T03:20:23.592Z,16.27
2023-05-20T03:22:50.103Z,17.25
2023-05-20T03:25:16.656Z,14.90
2023-05-20T03:27:44.898Z,15.13
2023-05-20T03:30:11.629Z,15.18
2023-05-20T03:32:38.291Z,16.23
2023-05-20T03:35:05.077Z,15.43
2023-05-20T03:37:31.616Z,16.80
2023-05-20T03:39:58.223Z,15.25
2023-05-20T03:42:24.800Z,17.75
2023-05-20T03:44:51.413Z,17.25
2023-05-20T03:47:17.956Z,16.30
2023-05-20T03:49:44.557Z,18.40
2023-05-20T03:52:11.199Z,17.45
2023-05-20T03:54:37.733Z,18.75
2023-05-20T03:57:04.333Z,16.80
2023-05-20T03:59:30.848Z,17.70
2023-05-20T04:01:57.502Z,19.60
2023-05-20T04:04:24.073Z,17.15
2023-05-20T04:06:51.038Z,16.52
2023-05-20T04:09:17.642Z,16.85
2023-05-20T04:11:44.429Z,16.73
2023-05-20T04:14:11.416Z,17.77
2023-05-20T04:16:38.003Z,17.63
2023-05-20T04:19:04.626Z,15.55
2023-05-20T04:21:31.658Z,16.67
2023-05-20T04:23:58.232Z,16.25
2023-05-20T04:26:24.902Z,16.77
2023-05-20T04:28:52.448Z,16.17
2023-05-20T04:31:19.031Z,18.25
2023-05-20T04:33:46.895Z,17.80
2023-05-20T04:36:16.588Z,17.05
2023-05-20T04:38:44.830Z,17.15
2023-05-20T04:41:11.519Z,16.50
2023-05-20T04:43:40.404Z,16.05
2023-05-20T04:46:07.214Z,15.65
2023-05-20T04:48:34.046Z,15.98
2023-05-20T04:51:00.603Z,16.88
2023-05-20T04:53:27.168Z,17.17
2023-05-20T04:55:57.263Z,14.38
2023-05-20T04:58:26.891Z,15.93
2023-05-20T05:00:53.483Z,15.50
2023-05-20T05:03:20.069Z,15.70
2023-05-20T05:05:46.654Z,17.23
2023-05-20T05:08:13.154Z,13.60
2023-05-20T05:10:39.759Z,14.70
2023-05-20T05:13:06.352Z,15.27
2023-05-20T05:15:33.064Z,15.48
2023-05-20T05:17:59.850Z,14.50
2023-05-20T05:20:26.435Z,15.20
2023-05-20T05:22:52.990Z,14.63
2023-05-20T05:25:19.564Z,14.95
2023-05-20T05:27:46.203Z,15.02
2023-05-20T05:30:12.826Z,14.73
2023-05-20T05:32:39.474Z,16.35
2023-05-20T05:35:08.190Z,14.82
2023-05-20T05:37:35.078Z,15.68
2023-05-20T05:40:01.596Z,15.13
2023-05-20T05:42:28.167Z,14.18
2023-05-20T05:44:54.792Z,16.23
2023-05-20T05:47:21.644Z,15.93
2023-05-20T05:49:49.342Z,15.23
2023-05-20T05:52:15.898Z,15.57
2023-05-20T05:54:42.447Z,16.20
2023-05-20T05:57:10.080Z,15.80
2023-05-20T05:59:36.648Z,15.25
2023-05-20T06:02:03.221Z,15.60
2023-05-20T06:04:29.824Z,15.90
2023-05-20T06:06:56.377Z,15.43
2023-05-20T06:09:22.938Z,14.48
2023-05-20T06:11:49.445Z,15.40
2023-05-20T06:14:16.102Z,16.00
2023-05-20T06:16:42.796Z,15.77
2023-05-20T06:19:09.743Z,15.20
2023-05-20T06:21:36.824Z,16.83
2023-05-20T06:24:03.447Z,17.08
2023-05-20T06:26:30.018Z,16.25
2023-05-20T06:28:56.537Z,17.20
2023-05-20T06:31:23.155Z,16.42
2023-05-20T06:33:49.725Z,17.02
2023-05-20T06:36:17.530Z,17.83
2023-05-20T06:38:44.079Z,16.88
2023-05-20T06:41:11.177Z,18.15
2023-05-20T06:43:37.874Z,16.52
2023-05-20T06:46:04.478Z,16.55
2023-05-20T06:48:31.109Z,17.40
2023-05-20T06:50:57.702Z,18.48
2023-05-20T06:53:24.264Z,16.42
2023-05-20T06:55:50.913Z,17.40
2023-05-20T06:58:17.512Z,16.70
2023-05-20T07:00:47.141Z,16.55
2023-05-20T07:03:13.734Z,17.50
2023-05-20T07:05:40.371Z,17.63
2023-05-20T07:08:06.919Z,16.77
2023-05-20T07:10:33.592Z,14.38
2023-05-20T07:13:00.616Z,15.23
2023-05-20T07:15:27.209Z,15.98
2023-05-20T07:17:53.777Z,16.02
2023-05-20T07:20:20.600Z,15.15
2023-05-20T07:22:48.857Z,14.88
2023-05-20T07:25:15.383Z,15.35
2023-05-20T07:27:41.903Z,14.63
2023-05-20T07:30:09.037Z,14.10
2023-05-20T07:32:35.570Z,15.75
2023-05-20T07:35:02.252Z,15.43
2023-05-20T07:37:28.833Z,14.55
2023-05-20T07:39:55.364Z,13.70
2023-05-20T07:42:21.905Z,15.25
2023-05-20T07:44:48.445Z,14.35
2023-05-20T07:47:14.981Z,14.73
2023-05-20T07:49:42.040Z,13.48
2023-05-20T07:52:08.668Z,14.32
2023-05-20T07:54:38.085Z,13.38
2023-05-20T07:57:04.736Z,12.95
2023-05-20T07:59:31.325Z,13.70
2023-05-20T08:01:58.117Z,14.05
2023-05-20T08:04:24.827Z,14.30
2023-05-20T08:06:52.544Z,13.40
2023-05-20T08:09:19.392Z,15.55
2023-05-20T08:11:47.529Z,14.20
2023-05-20T08:14:14.428Z,14.63
2023-05-20T08:16:42.122Z,15.77
2023-05-20T08:19:08.761Z,15.88
2023-05-20T08:21:35.647Z,15.70
2023-05-20T08:24:02.359Z,14.07
2023-05-20T08:26:28.949Z,15.93
2023-05-20T08:28:55.612Z,14.98
2023-05-20T08:31:22.186Z,15.00
2023-05-20T08:33:49.227Z,14.93
2023-05-20T08:36:16.533Z,15.23
2023-05-20T08:38:43.877Z,15.35
2023-05-20T08:41:10.588Z,14.50
2023-05-20T08:43:37.727Z,17.65
2023-05-20T08:46:06.655Z,15.50
2023-05-20T08:48:33.998Z,15.93
2023-05-20T08:51:03.323Z,15.63
2023-05-20T08:53:30.052Z,14.75
2023-05-20T08:56:00.914Z,14.75
2023-05-20T08:58:28.390Z,14.68
2023-05-20T09:00:54.957Z,15.43
2023-05-20T09:03:21.832Z,13.65
2023-05-20T09:05:50.593Z,14.18
2023-05-20T09:08:17.164Z,13.70
2023-05-20T09:10:43.734Z,12.02
2023-05-20T09:13:11.299Z,12.00
2023-05-20T09:15:39.233Z,13.57
2023-05-20T09:18:06.701Z,11.98
2023-05-20T09:20:41.332Z,12.88
2023-05-20T09:23:09.553Z,13.43
2023-05-20T09:25:36.971Z,14.35
2023-05-20T09:28:10.076Z,13.07
2023-05-20T09:30:36.620Z,13.43
2023-05-20T09:33:05.234Z,12.07
2023-05-20T09:35:35.095Z,13.50
2023-05-20T09:38:01.994Z,13.88
2023-05-20T09:40:29.328Z,13.10
2023-05-20T09:43:06.394Z,12.82
2023-05-20T09:45:33.203Z,12.68
2023-05-20T09:48:01.506Z,13.05
2023-05-20T09:50:28.996Z,11.75
2023-05-20T09:52:56.029Z,11.70
2023-05-20T09:55:24.477Z,11.50
2023-05-20T09:57:52.008Z,11.65
2023-05-20T10:00:19.927Z,11.68
2023-05-20T10:02:47.986Z,12.25
2023-05-20T10:05:26.005Z,11.20
2023-05-20T10:08:11.352Z,11.98
2023-05-20T10:10:46.368Z,11.52
2023-05-20T10:13:23.866Z,11.35
2023-05-20T10:16:02.994Z,10.52
2023-05-20T10:18:52.320Z,9.50
2023-05-20T10:21:22.554Z,10.60
2023-05-20T10:23:49.128Z,10.18
2023-05-20T10:26:15.835Z,10.25
2023-05-20T10:28:42.456Z,10.68
2023-05-20T10:31:29.280Z,10.25
2023-05-20T10:33:59.431Z,8.65
2023-05-20T10:36:27.016Z,10.68
2023-05-20T10:38:57.283Z,10.88
2023-05-20T10:41:28.016Z,10.18
2023-05-20T10:44:01.571Z,10.30
2023-05-20T10:46:36.621Z,10.00
2023-05-20T10:49:21.241Z,10.05
2023-05-20T10:54:16.674Z,10.40
2023-05-20T10:56:51.650Z,9.82
2023-05-20T10:59:18.238Z,10.07
2023-05-20T11:01:46.636Z,10.80
2023-05-20T11:04:14.114Z,10.55
2023-05-20T11:06:49.770Z,10.13
2023-05-20T11:09:16.652Z,10.77
2023-05-20T11:11:43.248Z,10.20
2023-05-20T11:14:13.760Z,10.45
2023-05-20T11:16:40.862Z,10.65
2023-05-20T11:19:08.542Z,9.75
2023-05-20T11:21:35.222Z,11.73
2023-05-20T11:24:01.914Z,10.95
2023-05-20T11:26:29.290Z,10.07
2023-05-20T11:28:56.547Z,9.65
2023-05-20T11:31:24.722Z,10.43
2023-05-20T11:33:52.327Z,10.57
2023-05-20T11:36:27.556Z,9.85
2023-05-20T11:38:55.512Z,10.93
2023-05-20T11:41:25.773Z,9.65
2023-05-20T11:43:59.401Z,10.13
2023-05-20T11:46:26.514Z,10.68
2023-05-20T11:48:56.535Z,10.48
2023-05-20T11:51:29.350Z,9.37
2023-05-20T11:54:02.251Z,10.25
2023-05-20T11:56:29.749Z,10.60
2023-05-20T11:58:57.254Z,10.40
2023-05-20T12:01:24.051Z,9.45
2023-05-20T12:03:51.196Z,10.35
2023-05-20T12:06:18.118Z,12.27
2023-05-20T12:08:44.738Z,8.45
2023-05-20T12:11:11.296Z,9.25
2023-05-20T12:13:37.947Z,9.18
2023-05-20T12:16:06.285Z,10.43
2023-05-20T12:18:33.282Z,9.20
2023-05-20T12:21:00.306Z,9.02
2023-05-20T12:23:27.009Z,9.85
2023-05-20T12:25:53.622Z,9.50
2023-05-20T12:28:20.162Z,9.80
2023-05-20T12:30:46.716Z,9.65
2023-05-20T12:33:13.746Z,9.73
2023-05-20T12:35:41.105Z,10.05
2023-05-20T12:38:08.591Z,8.98
2023-05-20T12:40:35.798Z,10.30
2023-05-20T12:43:03.062Z,10.23
2023-05-20T12:45:29.894Z,9.70
2023-05-20T12:47:56.865Z,9.63
2023-05-20T12:50:24.601Z,9.63
2023-05-20T12:52:51.219Z,10.52
2023-05-20T12:55:17.776Z,10.50
2023-05-20T12:57:45.246Z,9.95
2023-05-20T13:00:12.760Z,9.93
2023-05-20T13:02:40.311Z,9.00
2023-05-20T13:05:07.054Z,9.15
2023-05-20T13:07:34.589Z,10.35
2023-05-20T13:10:01.249Z,10.02
2023-05-20T13:12:28.460Z,9.40
2023-05-20T13:14:54.985Z,9.50
2023-05-20T13:17:21.533Z,9.43
2023-05-20T13:19:48.327Z,9.98
2023-05-20T13:22:14.881Z,9.57
2023-05-20T13:24:41.622Z,8.65
2023-05-20T13:27:08.535Z,10.00
2023-05-20T13:29:35.065Z,10.57
2023-05-20T13:32:02.160Z,9.90
2023-05-20T13:34:28.987Z,9.23
2023-05-20T13:36:55.520Z,8.57
2023-05-20T13:39:22.082Z,9.40
2023-05-20T13:41:48.674Z,8.65
2023-05-20T13:44:15.794Z,8.30
2023-05-20T13:46:42.485Z,8.80
2023-05-20T13:49:09.203Z,8.18
2023-05-20T13:51:35.975Z,8.10
2023-05-20T13:54:02.811Z,8.25
2023-05-20T13:56:29.496Z,8.10
2023-05-20T13:58:56.118Z,9.50
2023-05-20T14:01:22.760Z,8.98
2023-05-20T14:03:49.580Z,8.50
2023-05-20T14:06:18.985Z,8.43
2023-05-20T14:08:46.286Z,8.65
2023-05-20T14:11:13.078Z,7.47
2023-05-20T14:13:39.608Z,6.63
2023-05-20T14:16:06.376Z,7.90
2023-05-20T14:18:33.007Z,7.57
2023-05-20T14:20:59.911Z,8.25
2023-05-20T14:23:26.410Z,7.95
2023-05-20T14:25:53.001Z,7.65
2023-05-20T14:28:20.012Z,7.93
2023-05-20T14:30:46.535Z,7.22
2023-05-20T14:33:13.121Z,6.13
2023-05-20T14:35:39.773Z,7.65
2023-05-20T14:38:07.033Z,8.10
2023-05-20T14:40:34.059Z,6.97
2023-05-20T14:43:00.790Z,8.00
2023-05-20T14:45:27.386Z,7.65
2023-05-20T14:47:54.019Z,7.65
2023-05-20T14:50:20.956Z,9.05
2023-05-20T14:52:47.553Z,8.50
2023-05-20T14:55:14.135Z,9.80
2023-05-20T14:57:40.720Z,8.93
2023-05-20T15:00:07.679Z,8.52
2023-05-20T15:02:34.292Z,9.30
2023-05-20T15:05:01.283Z,7.85
2023-05-20T15:07:27.916Z,8.20
2023-05-20T15:09:54.495Z,8.32
2023-05-20T15:12:21.068Z,7.80
2023-05-20T15:14:47.670Z,8.00
2023-05-20T15:17:14.213Z,9.13
2023-05-20T15:19:41.859Z,8.05
2023-05-20T15:22:08.721Z,8.57
2023-05-20T15:24:35.242Z,9.63
2023-05-20T15:27:01.827Z,8.77
2023-05-20T15:29:28.384Z,9.48
2023-05-20T15:31:54.937Z,9.23
2023-05-20T15:34:21.552Z,8.75
2023-05-20T15:36:48.085Z,10.52
2023-05-20T15:39:14.649Z,8.75
2023-05-20T15:41:42.537Z,8.65
2023-05-20T15:44:09.155Z,8.70
2023-05-20T15:46:35.935Z,8.40
2023-05-20T15:49:04.789Z,9.02
2023-05-20T15:51:31.485Z,9.13
2023-05-20T15:53:58.031Z,9.75
2023-05-20T15:56:24.726Z,8.90
2023-05-20T15:58:51.498Z,9.35
2023-05-20T16:01:18.047Z,10.13
2023-05-20T16:03:44.761Z,9.80
2023-05-20T16:06:12.754Z,8.68
2023-05-20T16:08:40.866Z,9.35
2023-05-20T16:11:08.061Z,9.10
2023-05-20T16:13:34.734Z,9.43
2023-05-20T16:16:01.458Z,9.40
2023-05-20T16:18:30.985Z,9.48
2023-05-20T16:20:58.036Z,8.60
2023-05-20T16:23:25.087Z,9.07
2023-05-20T16:25:51.703Z,10.23
2023-05-20T16:28:18.440Z,8.52
2023-05-20T16:30:44.984Z,8.70
2023-05-20T16:33:13.380Z,8.50
2023-05-20T16:35:40.306Z,9.20
2023-05-20T16:38:07.085Z,10.30
2023-05-20T16:40:34.133Z,10.07
2023-05-20T16:43:01.283Z,8.95
2023-05-20T16:45:27.947Z,8.52
2023-05-20T16:47:54.632Z,9.55
2023-05-20T16:50:21.667Z,8.82
2023-05-20T16:52:49.044Z,9.15
2023-05-20T16:55:15.801Z,6.90
2023-05-20T16:57:43.432Z,7.75
2023-05-20T17:00:11.685Z,6.80
2023-05-20T17:02:38.417Z,7.50
2023-05-20T17:05:05.280Z,6.53
2023-05-20T17:07:33.620Z,7.38
2023-05-20T17:10:00.363Z,7.00
2023-05-20T17:12:26.952Z,6.95
2023-05-20T17:14:53.830Z,7.15
2023-05-20T17:17:21.434Z,7.30
2023-05-20T17:19:48.182Z,8.02
2023-05-20T17:22:14.736Z,8.02
2023-05-20T17:24:41.357Z,8.50
2023-05-20T17:27:07.985Z,7.90
2023-05-20T17:29:34.614Z,7.85
2023-05-20T17:32:01.146Z,7.63
2023-05-20T17:34:27.895Z,8.48
2023-05-20T17:36:54.545Z,8.88
2023-05-20T17:39:21.091Z,9.57
2023-05-20T17:41:47.572Z,9.07
2023-05-20T17:44:14.111Z,7.95
2023-05-20T17:46:40.866Z,8.70
2023-05-20T17:49:07.548Z,9.05
2023-05-20T17:51:34.423Z,9.05
2023-05-20T17:54:00.994Z,8.80
2023-05-20T17:56:27.710Z,9.48
2023-05-20T17:58:56.260Z,8.80
2023-05-20T18:01:23.600Z,9.85
2023-05-20T18:03:50.356Z,9.13
2023-05-20T18:06:18.129Z,8.57
2023-05-20T18:08:44.758Z,9.02
2023-05-20T18:11:11.323Z,9.65
2023-05-20T18:13:37.893Z,9.50
2023-05-20T18:16:04.756Z,11.00
2023-05-20T18:18:31.362Z,10.63
2023-05-20T18:20:57.957Z,9.73
2023-05-20T18:23:24.564Z,9.93
2023-05-20T18:25:51.109Z,9.45
2023-05-20T18:28:17.727Z,9.18
2023-05-20T18:30:44.284Z,9.48
2023-05-20T18:33:11.056Z,9.55
2023-05-20T18:35:37.726Z,9.13
2023-05-20T18:38:04.378Z,10.52
2023-05-20T18:40:30.972Z,8.75
2023-05-20T18:42:57.608Z,9.77
2023-05-20T18:45:25.061Z,10.20
2023-05-20T18:47:52.937Z,9.15
2023-05-20T18:50:19.640Z,9.80
2023-05-20T18:52:46.289Z,10.45
2023-05-20T18:55:12.889Z,10.32
2023-05-20T18:57:39.490Z,9.82
2023-05-20T19:00:11.006Z,9.10
2023-05-20T19:02:39.799Z,9.95
2023-05-20T19:05:10.351Z,10.18
2023-05-20T19:07:37.703Z,9.95
2023-05-20T19:10:04.795Z,9.98
2023-05-20T19:12:31.594Z,9.55
2023-05-20T19:14:58.300Z,9.48
2023-05-20T19:17:24.982Z,10.05
2023-05-20T19:19:51.535Z,8.73
2023-05-20T19:22:18.104Z,8.43
2023-05-20T19:24:44.662Z,8.95
2023-05-20T19:27:11.339Z,8.75
2023-05-20T19:29:37.887Z,8.93
2023-05-20T19:32:04.642Z,8.38
2023-05-20T19:34:31.346Z,9.13
2023-05-20T19:36:58.125Z,9.30
2023-05-20T19:39:24.768Z,9.93
2023-05-20T19:41:53.166Z,10.07
2023-05-20T19:44:19.724Z,9.80
2023-05-20T19:46:47.104Z,9.73
2023-05-20T19:49:13.778Z,10.15
2023-05-20T19:51:40.378Z,11.00
2023-05-20T19:54:06.913Z,9.05
2023-05-20T19:56:33.492Z,9.70
2023-05-20T19:59:01.910Z,10.52
2023-05-20T20:01:28.669Z,10.40
2023-05-20T20:03:55.386Z,9.50
2023-05-20T20:06:21.985Z,10.27
2023-05-20T20:08:48.577Z,10.23
2023-05-20T20:11:15.217Z,10.65
2023-05-20T20:13:41.765Z,11.30
2023-05-20T20:16:08.679Z,11.35
2023-05-20T20:18:35.337Z,12.27
2023-05-20T20:21:06.147Z,11.63
2023-05-20T20:23:33.000Z,15.98
2023-05-20T20:25:59.663Z,16.17
2023-05-20T20:28:26.418Z,13.18
2023-05-20T20:30:53.032Z,13.88
2023-05-20T20:33:19.831Z,12.23
2023-05-20T20:35:46.869Z,12.00
2023-05-20T20:38:13.453Z,11.38
2023-05-20T20:40:41.925Z,11.93
2023-05-20T20:43:09.247Z,11.68
2023-05-20T20:45:38.446Z,12.18
2023-05-20T20:48:08.168Z,12.32
2023-05-20T20:50:35.865Z,14.20
2023-05-20T20:53:02.686Z,13.95
2023-05-20T20:55:32.243Z,12.95
2023-05-20T20:58:02.846Z,13.90
2023-05-20T21:00:29.824Z,13.20
2023-05-20T21:02:56.550Z,14.85
2023-05-20T21:05:26.763Z,14.95
2023-05-20T21:07:58.473Z,12.85
2023-05-20T21:10:29.458Z,14.27
2023-05-20T21:12:57.154Z,14.10
2023-05-20T21:15:24.531Z,13.70
2023-05-20T21:17:51.362Z,13.68
2023-05-20T21:20:21.340Z,13.55
2023-05-20T21:22:48.455Z,14.87
2023-05-20T21:25:15.174Z,12.85
2023-05-20T21:27:41.860Z,13.32
2023-05-20T21:30:11.854Z,13.63
2023-05-20T21:32:38.626Z,13.00
2023-05-20T21:35:05.570Z,13.63
2023-05-20T21:37:32.107Z,13.07
2023-05-20T21:39:58.748Z,13.68
2023-05-20T21:42:25.428Z,14.23
2023-05-20T21:44:52.063Z,12.23
2023-05-20T21:47:20.711Z,13.00
2023-05-20T21:49:48.360Z,14.77
2023-05-20T21:52:14.979Z,13.43
2023-05-20T21:54:41.982Z,14.43
2023-05-20T21:57:08.553Z,13.82
2023-05-20T21:59:35.156Z,11.73
2023-05-20T22:02:02.059Z,12.77
2023-05-20T22:04:29.192Z,11.00
2023-05-20T22:06:56.383Z,11.18
2023-05-20T22:09:23.146Z,11.50
2023-05-20T22:11:49.906Z,10.57
2023-05-20T22:14:16.882Z,13.68
2023-05-20T22:16:46.761Z,15.57
2023-05-20T22:19:14.028Z,16.50
2023-05-20T22:21:50.151Z,15.90
2023-05-20T22:24:17.939Z,17.73
2023-05-20T22:26:44.683Z,18.27
2023-05-20T22:29:11.245Z,25.58
2023-05-20T22:31:38.341Z,29.70
2023-05-20T22:34:05.699Z,25.80
2023-05-20T22:36:34.383Z,22.38
2023-05-20T22:39:02.352Z,19.60
2023-05-20T22:41:29.037Z,19.15
2023-05-20T22:43:56.965Z,17.70
2023-05-20T22:46:23.786Z,16.55
2023-05-20T22:48:53.218Z,18.42
2023-05-20T22:51:21.550Z,17.60
2023-05-20T22:53:48.477Z,17.25
2023-05-20T22:56:15.178Z,17.27
2023-05-20T22:58:41.834Z,18.65
2023-05-20T23:01:08.523Z,18.70
2023-05-20T23:03:35.150Z,18.25
2023-05-20T23:06:01.640Z,17.80
2023-05-20T23:08:28.485Z,19.40
2023-05-20T23:10:54.997Z,17.63
2023-05-20T23:13:21.606Z,19.50
2023-05-20T23:15:48.609Z,18.90
2023-05-20T23:18:15.783Z,20.25
2023-05-20T23:20:42.667Z,19.52
2023-05-20T23:23:11.480Z,16.75
2023-05-20T23:25:38.492Z,17.75
2023-05-20T23:28:05.287Z,17.73
2023-05-20T23:30:31.920Z,16.45
2023-05-20T23:32:58.521Z,14.63
2023-05-20T23:35:25.137Z,14.18
2023-05-20T23:37:52.553Z,14.10
2023-05-20T23:40:19.325Z,14.05
2023-05-20T23:42:45.976Z,17.13
2023-05-20T23:45:12.555Z,15.55
2023-05-20T23:47:39.312Z,14.32
2023-05-20T23:50:06.156Z,13.40
2023-05-20T23:52:32.811Z,13.90
2023-05-20T23:55:00.355Z,13.73
2023-05-20T23:57:27.029Z,13.70
2023-05-20T23:59:53.517Z,12.32
